sensor_id;sensor_type;location;lat;lon;timestamp;temperature;humidity
53264;DHT22;39153;52.680;6.172;2023-03-14T00:01:23;10.60;99.90
53264;DHT22;39153;52.680;6.172;2023-03-14T00:03:50;10.60;99.90
53264;DHT22;39153;52.680;6.172;2023-03-14T00:06:16;10.60;99.90
53264;DHT22;39153;52.680;6.172;2023-03-14T00:08:43;10.60;99.90
53264;DHT22;39153;52.680;6.172;2023-03-14T00:11:12;10.60;99.90
53264;DHT22;39153;52.680;6.172;2023-03-14T00:13:38;10.60;99.90
53264;DHT22;39153;52.680;6.172;2023-03-14T00:16:09;10.60;99.90
53264;DHT22;39153;52.680;6.172;2023-03-14T00:18:35;10.60;99.90
53264;DHT22;39153;52.680;6.172;2023-03-14T00:21:03;10.60;99.90
53264;DHT22;39153;52.680;6.172;2023-03-14T00:23:30;10.70;99.90
53264;DHT22;39153;52.680;6.172;2023-03-14T00:26:00;10.70;99.90
53264;DHT22;39153;52.680;6.172;2023-03-14T00:28:27;10.80;99.90
53264;DHT22;39153;52.680;6.172;2023-03-14T00:30:52;10.80;99.90
53264;DHT22;39153;52.680;6.172;2023-03-14T00:33:18;10.80;99.90
53264;DHT22;39153;52.680;6.172;2023-03-14T00:35:58;10.80;99.90
53264;DHT22;39153;52.680;6.172;2023-03-14T00:38:25;10.80;99.90
53264;DHT22;39153;52.680;6.172;2023-03-14T00:40:52;10.80;99.90
53264;DHT22;39153;52.680;6.172;2023-03-14T00:43:18;10.80;99.90
53264;DHT22;39153;52.680;6.172;2023-03-14T00:45:44;10.70;99.90
53264;DHT22;39153;52.680;6.172;2023-03-14T00:48:10;10.70;99.90
53264;DHT22;39153;52.680;6.172;2023-03-14T00:50:35;10.70;99.90
53264;DHT22;39153;52.680;6.172;2023-03-14T00:53:01;10.60;99.90
53264;DHT22;39153;52.680;6.172;2023-03-14T00:55:27;10.70;99.90
53264;DHT22;39153;52.680;6.172;2023-03-14T00:57:52;10.50;99.90
53264;DHT22;39153;52.680;6.172;2023-03-14T01:00:18;10.50;99.90
53264;DHT22;39153;52.680;6.172;2023-03-14T01:02:44;10.40;99.90
53264;DHT22;39153;52.680;6.172;2023-03-14T01:05:09;10.40;99.90
53264;DHT22;39153;52.680;6.172;2023-03-14T01:07:38;10.40;99.90
53264;DHT22;39153;52.680;6.172;2023-03-14T01:10:05;10.30;99.90
53264;DHT22;39153;52.680;6.172;2023-03-14T01:12:31;10.30;99.90
53264;DHT22;39153;52.680;6.172;2023-03-14T01:14:57;10.20;99.90
53264;DHT22;39153;52.680;6.172;2023-03-14T01:17:23;10.20;99.90
53264;DHT22;39153;52.680;6.172;2023-03-14T01:19:49;10.20;99.90
53264;DHT22;39153;52.680;6.172;2023-03-14T01:22:15;10.00;99.90
53264;DHT22;39153;52.680;6.172;2023-03-14T01:24:40;10.00;99.90
53264;DHT22;39153;52.680;6.172;2023-03-14T01:27:06;9.90;99.90
53264;DHT22;39153;52.680;6.172;2023-03-14T01:29:32;9.90;99.90
53264;DHT22;39153;52.680;6.172;2023-03-14T01:31:57;9.90;99.90
53264;DHT22;39153;52.680;6.172;2023-03-14T01:34:23;9.80;99.90
53264;DHT22;39153;52.680;6.172;2023-03-14T01:36:49;9.80;99.90
53264;DHT22;39153;52.680;6.172;2023-03-14T01:39:15;9.80;99.90
53264;DHT22;39153;52.680;6.172;2023-03-14T01:41:41;9.80;99.90
53264;DHT22;39153;52.680;6.172;2023-03-14T01:44:11;9.80;99.90
53264;DHT22;39153;52.680;6.172;2023-03-14T01:46:41;9.90;99.90
53264;DHT22;39153;52.680;6.172;2023-03-14T01:54:43;9.80;99.90
53264;DHT22;39153;52.680;6.172;2023-03-14T01:59:48;9.80;99.90
53264;DHT22;39153;52.680;6.172;2023-03-14T02:02:17;9.80;99.90
53264;DHT22;39153;52.680;6.172;2023-03-14T02:04:43;9.80;99.90
53264;DHT22;39153;52.680;6.172;2023-03-14T02:07:13;9.90;99.90
53264;DHT22;39153;52.680;6.172;2023-03-14T02:09:41;9.90;99.90
53264;DHT22;39153;52.680;6.172;2023-03-14T02:12:13;9.90;99.90
53264;DHT22;39153;52.680;6.172;2023-03-14T02:14:40;9.90;99.90
53264;DHT22;39153;52.680;6.172;2023-03-14T02:17:08;9.90;99.90
53264;DHT22;39153;52.680;6.172;2023-03-14T02:22:31;9.80;99.90
53264;DHT22;39153;52.680;6.172;2023-03-14T02:28:03;9.70;99.90
53264;DHT22;39153;52.680;6.172;2023-03-14T02:30:31;9.70;99.90
53264;DHT22;39153;52.680;6.172;2023-03-14T02:33:08;9.80;99.90
53264;DHT22;39153;52.680;6.172;2023-03-14T02:35:40;9.70;99.90
53264;DHT22;39153;52.680;6.172;2023-03-14T02:38:33;9.60;99.90
53264;DHT22;39153;52.680;6.172;2023-03-14T02:41:01;9.60;99.90
53264;DHT22;39153;52.680;6.172;2023-03-14T02:43:27;9.50;99.90
53264;DHT22;39153;52.680;6.172;2023-03-14T02:45:52;9.50;99.90
53264;DHT22;39153;52.680;6.172;2023-03-14T02:48:22;9.40;99.90
53264;DHT22;39153;52.680;6.172;2023-03-14T02:50:54;9.30;99.90
53264;DHT22;39153;52.680;6.172;2023-03-14T02:53:33;9.30;99.90
53264;DHT22;39153;52.680;6.172;2023-03-14T02:55:59;9.30;99.90
53264;DHT22;39153;52.680;6.172;2023-03-14T02:58:25;9.30;99.90
53264;DHT22;39153;52.680;6.172;2023-03-14T03:00:52;9.20;99.90
53264;DHT22;39153;52.680;6.172;2023-03-14T03:03:18;9.20;99.90
53264;DHT22;39153;52.680;6.172;2023-03-14T03:05:48;9.20;99.90
53264;DHT22;39153;52.680;6.172;2023-03-14T03:08:14;9.10;99.90
53264;DHT22;39153;52.680;6.172;2023-03-14T03:10:39;9.10;99.90
53264;DHT22;39153;52.680;6.172;2023-03-14T03:13:05;9.10;99.90
53264;DHT22;39153;52.680;6.172;2023-03-14T03:15:31;9.20;99.90
53264;DHT22;39153;52.680;6.172;2023-03-14T03:17:56;9.20;99.90
53264;DHT22;39153;52.680;6.172;2023-03-14T03:20:22;9.10;99.90
53264;DHT22;39153;52.680;6.172;2023-03-14T03:22:48;9.10;99.90
53264;DHT22;39153;52.680;6.172;2023-03-14T03:25:15;9.10;99.90
53264;DHT22;39153;52.680;6.172;2023-03-14T03:27:41;9.20;99.90
53264;DHT22;39153;52.680;6.172;2023-03-14T03:30:08;9.10;99.90
53264;DHT22;39153;52.680;6.172;2023-03-14T03:32:34;9.10;99.90
53264;DHT22;39153;52.680;6.172;2023-03-14T03:35:01;9.10;99.90
53264;DHT22;39153;52.680;6.172;2023-03-14T03:37:27;9.10;99.90
53264;DHT22;39153;52.680;6.172;2023-03-14T03:39:53;9.10;99.90
53264;DHT22;39153;52.680;6.172;2023-03-14T03:42:19;9.10;99.90
53264;DHT22;39153;52.680;6.172;2023-03-14T03:44:45;9.10;99.90
53264;DHT22;39153;52.680;6.172;2023-03-14T03:47:11;9.20;99.90
53264;DHT22;39153;52.680;6.172;2023-03-14T03:49:36;9.20;99.90
53264;DHT22;39153;52.680;6.172;2023-03-14T03:52:02;9.10;99.90
53264;DHT22;39153;52.680;6.172;2023-03-14T03:54:28;9.10;99.90
53264;DHT22;39153;52.680;6.172;2023-03-14T03:56:56;9.20;99.90
53264;DHT22;39153;52.680;6.172;2023-03-14T03:59:22;9.10;99.90
53264;DHT22;39153;52.680;6.172;2023-03-14T04:01:48;9.10;99.90
53264;DHT22;39153;52.680;6.172;2023-03-14T04:04:14;9.10;99.90
53264;DHT22;39153;52.680;6.172;2023-03-14T04:06:39;9.00;99.90
53264;DHT22;39153;52.680;6.172;2023-03-14T04:09:08;9.10;99.90
53264;DHT22;39153;52.680;6.172;2023-03-14T04:11:33;9.00;99.90
53264;DHT22;39153;52.680;6.172;2023-03-14T04:13:59;9.00;99.90
53264;DHT22;39153;52.680;6.172;2023-03-14T04:16:26;9.00;99.90
53264;DHT22;39153;52.680;6.172;2023-03-14T04:18:53;8.90;99.90
53264;DHT22;39153;52.680;6.172;2023-03-14T04:21:19;8.90;99.90
53264;DHT22;39153;52.680;6.172;2023-03-14T04:23:44;8.90;99.90
53264;DHT22;39153;52.680;6.172;2023-03-14T04:26:10;9.00;99.90
53264;DHT22;39153;52.680;6.172;2023-03-14T04:28:36;8.90;99.90
53264;DHT22;39153;52.680;6.172;2023-03-14T04:31:09;9.00;99.90
53264;DHT22;39153;52.680;6.172;2023-03-14T04:33:36;9.10;99.90
53264;DHT22;39153;52.680;6.172;2023-03-14T04:36:04;8.90;99.90
53264;DHT22;39153;52.680;6.172;2023-03-14T04:38:30;9.10;99.90
53264;DHT22;39153;52.680;6.172;2023-03-14T04:40:56;9.00;99.90
53264;DHT22;39153;52.680;6.172;2023-03-14T04:43:21;9.00;99.90
53264;DHT22;39153;52.680;6.172;2023-03-14T04:45:47;9.20;99.90
53264;DHT22;39153;52.680;6.172;2023-03-14T04:48:13;9.20;99.90
53264;DHT22;39153;52.680;6.172;2023-03-14T04:50:39;9.20;99.90
53264;DHT22;39153;52.680;6.172;2023-03-14T04:53:05;9.20;99.90
53264;DHT22;39153;52.680;6.172;2023-03-14T04:55:32;9.20;99.90
53264;DHT22;39153;52.680;6.172;2023-03-14T04:58:00;9.20;99.90
53264;DHT22;39153;52.680;6.172;2023-03-14T05:00:25;9.30;99.90
53264;DHT22;39153;52.680;6.172;2023-03-14T05:02:51;9.30;99.90
53264;DHT22;39153;52.680;6.172;2023-03-14T05:05:17;9.30;99.90
53264;DHT22;39153;52.680;6.172;2023-03-14T05:07:42;9.30;99.90
53264;DHT22;39153;52.680;6.172;2023-03-14T05:10:09;9.20;99.90
53264;DHT22;39153;52.680;6.172;2023-03-14T05:12:35;9.20;99.90
53264;DHT22;39153;52.680;6.172;2023-03-14T05:15:01;9.20;99.90
53264;DHT22;39153;52.680;6.172;2023-03-14T05:17:26;9.20;99.90
53264;DHT22;39153;52.680;6.172;2023-03-14T05:19:52;9.20;99.90
53264;DHT22;39153;52.680;6.172;2023-03-14T05:22:18;9.10;99.90
53264;DHT22;39153;52.680;6.172;2023-03-14T05:24:43;9.20;99.90
53264;DHT22;39153;52.680;6.172;2023-03-14T05:27:09;9.10;99.90
53264;DHT22;39153;52.680;6.172;2023-03-14T05:29:35;9.10;99.90
53264;DHT22;39153;52.680;6.172;2023-03-14T05:32:01;9.20;99.90
53264;DHT22;39153;52.680;6.172;2023-03-14T05:34:26;9.10;99.90
53264;DHT22;39153;52.680;6.172;2023-03-14T05:36:52;9.10;99.90
53264;DHT22;39153;52.680;6.172;2023-03-14T05:39:18;9.00;99.90
53264;DHT22;39153;52.680;6.172;2023-03-14T05:41:44;8.90;99.90
53264;DHT22;39153;52.680;6.172;2023-03-14T05:44:09;9.00;99.90
53264;DHT22;39153;52.680;6.172;2023-03-14T05:46:35;9.00;99.90
53264;DHT22;39153;52.680;6.172;2023-03-14T05:49:01;9.00;99.90
53264;DHT22;39153;52.680;6.172;2023-03-14T05:51:26;9.00;99.90
53264;DHT22;39153;52.680;6.172;2023-03-14T05:53:52;8.80;99.90
53264;DHT22;39153;52.680;6.172;2023-03-14T05:56:18;8.80;99.90
53264;DHT22;39153;52.680;6.172;2023-03-14T05:58:43;9.00;99.90
53264;DHT22;39153;52.680;6.172;2023-03-14T06:01:09;9.00;99.90
53264;DHT22;39153;52.680;6.172;2023-03-14T06:03:35;9.10;99.90
53264;DHT22;39153;52.680;6.172;2023-03-14T06:06:01;8.90;99.90
53264;DHT22;39153;52.680;6.172;2023-03-14T06:08:26;8.90;99.90
53264;DHT22;39153;52.680;6.172;2023-03-14T06:10:53;8.70;99.90
53264;DHT22;39153;52.680;6.172;2023-03-14T06:13:20;8.90;99.90
53264;DHT22;39153;52.680;6.172;2023-03-14T06:15:46;8.90;99.90
53264;DHT22;39153;52.680;6.172;2023-03-14T06:18:12;8.80;99.90
53264;DHT22;39153;52.680;6.172;2023-03-14T06:20:39;8.70;99.90
53264;DHT22;39153;52.680;6.172;2023-03-14T06:23:06;8.90;99.90
53264;DHT22;39153;52.680;6.172;2023-03-14T06:25:32;8.80;99.90
53264;DHT22;39153;52.680;6.172;2023-03-14T06:27:58;8.80;99.90
53264;DHT22;39153;52.680;6.172;2023-03-14T06:30:24;8.80;99.90
53264;DHT22;39153;52.680;6.172;2023-03-14T06:32:49;8.80;99.90
53264;DHT22;39153;52.680;6.172;2023-03-14T06:35:15;8.90;99.90
53264;DHT22;39153;52.680;6.172;2023-03-14T06:37:41;8.80;99.90
53264;DHT22;39153;52.680;6.172;2023-03-14T06:40:09;8.90;99.90
53264;DHT22;39153;52.680;6.172;2023-03-14T06:42:35;8.90;99.90
53264;DHT22;39153;52.680;6.172;2023-03-14T06:45:01;8.70;99.90
53264;DHT22;39153;52.680;6.172;2023-03-14T06:47:27;8.70;99.90
53264;DHT22;39153;52.680;6.172;2023-03-14T06:49:53;8.60;99.90
53264;DHT22;39153;52.680;6.172;2023-03-14T06:52:18;8.80;99.90
53264;DHT22;39153;52.680;6.172;2023-03-14T06:54:44;8.70;99.90
53264;DHT22;39153;52.680;6.172;2023-03-14T06:57:10;8.40;99.90
53264;DHT22;39153;52.680;6.172;2023-03-14T06:59:35;8.40;99.90
53264;DHT22;39153;52.680;6.172;2023-03-14T07:02:01;8.50;99.90
53264;DHT22;39153;52.680;6.172;2023-03-14T07:04:27;8.30;99.90
53264;DHT22;39153;52.680;6.172;2023-03-14T07:06:52;8.20;99.90
53264;DHT22;39153;52.680;6.172;2023-03-14T07:09:18;8.10;99.90
53264;DHT22;39153;52.680;6.172;2023-03-14T07:11:44;7.80;99.90
53264;DHT22;39153;52.680;6.172;2023-03-14T07:14:10;7.80;99.90
53264;DHT22;39153;52.680;6.172;2023-03-14T07:16:36;7.70;99.90
53264;DHT22;39153;52.680;6.172;2023-03-14T07:19:02;7.70;99.90
53264;DHT22;39153;52.680;6.172;2023-03-14T07:21:28;7.50;99.90
53264;DHT22;39153;52.680;6.172;2023-03-14T07:23:53;7.50;99.90
53264;DHT22;39153;52.680;6.172;2023-03-14T07:26:19;7.50;99.90
53264;DHT22;39153;52.680;6.172;2023-03-14T07:28:45;7.30;99.90
53264;DHT22;39153;52.680;6.172;2023-03-14T07:31:11;7.20;99.90
53264;DHT22;39153;52.680;6.172;2023-03-14T07:33:36;7.00;99.90
53264;DHT22;39153;52.680;6.172;2023-03-14T07:36:03;6.90;99.90
53264;DHT22;39153;52.680;6.172;2023-03-14T07:38:29;6.70;99.90
53264;DHT22;39153;52.680;6.172;2023-03-14T07:41:03;7.00;99.90
53264;DHT22;39153;52.680;6.172;2023-03-14T07:43:29;6.40;99.90
53264;DHT22;39153;52.680;6.172;2023-03-14T07:45:54;6.30;99.90
53264;DHT22;39153;52.680;6.172;2023-03-14T07:48:21;6.30;99.90
53264;DHT22;39153;52.680;6.172;2023-03-14T07:50:50;6.60;99.90
53264;DHT22;39153;52.680;6.172;2023-03-14T07:53:16;6.30;99.90
53264;DHT22;39153;52.680;6.172;2023-03-14T07:55:42;5.90;99.90
53264;DHT22;39153;52.680;6.172;2023-03-14T07:58:07;5.80;99.90
53264;DHT22;39153;52.680;6.172;2023-03-14T08:00:33;5.90;99.90
53264;DHT22;39153;52.680;6.172;2023-03-14T08:02:59;5.80;99.90
53264;DHT22;39153;52.680;6.172;2023-03-14T08:05:24;5.60;99.90
53264;DHT22;39153;52.680;6.172;2023-03-14T08:07:50;5.60;99.90
53264;DHT22;39153;52.680;6.172;2023-03-14T08:10:16;5.50;99.90
53264;DHT22;39153;52.680;6.172;2023-03-14T08:12:49;5.60;99.90
53264;DHT22;39153;52.680;6.172;2023-03-14T08:15:15;5.70;99.90
53264;DHT22;39153;52.680;6.172;2023-03-14T08:17:41;5.60;99.90
53264;DHT22;39153;52.680;6.172;2023-03-14T08:20:07;5.50;99.90
53264;DHT22;39153;52.680;6.172;2023-03-14T08:22:34;5.60;99.90
53264;DHT22;39153;52.680;6.172;2023-03-14T08:24:59;5.70;99.90
53264;DHT22;39153;52.680;6.172;2023-03-14T08:27:25;5.70;99.90
53264;DHT22;39153;52.680;6.172;2023-03-14T08:29:51;5.40;99.90
53264;DHT22;39153;52.680;6.172;2023-03-14T08:32:16;5.80;99.90
53264;DHT22;39153;52.680;6.172;2023-03-14T08:34:43;5.70;99.90
53264;DHT22;39153;52.680;6.172;2023-03-14T08:37:08;5.80;99.90
53264;DHT22;39153;52.680;6.172;2023-03-14T08:39:34;5.80;99.90
53264;DHT22;39153;52.680;6.172;2023-03-14T08:42:00;5.90;99.90
53264;DHT22;39153;52.680;6.172;2023-03-14T08:44:25;5.70;99.90
53264;DHT22;39153;52.680;6.172;2023-03-14T08:46:51;5.70;99.90
53264;DHT22;39153;52.680;6.172;2023-03-14T08:49:17;5.80;99.90
53264;DHT22;39153;52.680;6.172;2023-03-14T08:51:42;6.00;99.90
53264;DHT22;39153;52.680;6.172;2023-03-14T08:54:11;5.80;99.90
53264;DHT22;39153;52.680;6.172;2023-03-14T08:56:37;5.80;99.90
53264;DHT22;39153;52.680;6.172;2023-03-14T08:59:05;5.80;99.90
53264;DHT22;39153;52.680;6.172;2023-03-14T09:01:32;5.90;99.90
53264;DHT22;39153;52.680;6.172;2023-03-14T09:03:57;6.00;99.90
53264;DHT22;39153;52.680;6.172;2023-03-14T09:06:23;6.10;99.90
53264;DHT22;39153;52.680;6.172;2023-03-14T09:08:49;6.10;99.90
53264;DHT22;39153;52.680;6.172;2023-03-14T09:11:15;6.20;99.90
53264;DHT22;39153;52.680;6.172;2023-03-14T09:13:41;6.70;99.90
53264;DHT22;39153;52.680;6.172;2023-03-14T09:16:07;6.40;99.90
53264;DHT22;39153;52.680;6.172;2023-03-14T09:18:33;6.30;99.90
53264;DHT22;39153;52.680;6.172;2023-03-14T09:20:58;6.30;99.90
53264;DHT22;39153;52.680;6.172;2023-03-14T09:23:24;6.40;99.90
53264;DHT22;39153;52.680;6.172;2023-03-14T09:25:55;6.30;99.90
53264;DHT22;39153;52.680;6.172;2023-03-14T09:28:21;6.40;99.90
53264;DHT22;39153;52.680;6.172;2023-03-14T09:30:46;6.40;99.90
53264;DHT22;39153;52.680;6.172;2023-03-14T09:33:12;6.50;99.90
53264;DHT22;39153;52.680;6.172;2023-03-14T09:35:38;6.50;99.90
53264;DHT22;39153;52.680;6.172;2023-03-14T09:38:04;6.60;99.90
53264;DHT22;39153;52.680;6.172;2023-03-14T09:40:34;6.70;99.90
53264;DHT22;39153;52.680;6.172;2023-03-14T09:43:01;6.90;99.90
53264;DHT22;39153;52.680;6.172;2023-03-14T09:45:36;6.80;99.90
53264;DHT22;39153;52.680;6.172;2023-03-14T09:48:04;6.80;99.90
53264;DHT22;39153;52.680;6.172;2023-03-14T09:50:39;6.80;99.90
53264;DHT22;39153;52.680;6.172;2023-03-14T09:53:11;7.00;99.90
53264;DHT22;39153;52.680;6.172;2023-03-14T09:55:38;6.90;99.90
53264;DHT22;39153;52.680;6.172;2023-03-14T09:58:10;6.90;99.90
53264;DHT22;39153;52.680;6.172;2023-03-14T10:00:37;6.80;99.90
53264;DHT22;39153;52.680;6.172;2023-03-14T10:05:38;6.60;99.90
53264;DHT22;39153;52.680;6.172;2023-03-14T10:08:04;6.50;99.90
53264;DHT22;39153;52.680;6.172;2023-03-14T10:10:30;6.40;99.90
53264;DHT22;39153;52.680;6.172;2023-03-14T10:15:31;6.40;99.90
53264;DHT22;39153;52.680;6.172;2023-03-14T10:18:00;6.50;99.90
53264;DHT22;39153;52.680;6.172;2023-03-14T10:20:36;6.60;99.90
53264;DHT22;39153;52.680;6.172;2023-03-14T10:23:24;6.60;99.90
53264;DHT22;39153;52.680;6.172;2023-03-14T10:26:07;6.70;99.90
53264;DHT22;39153;52.680;6.172;2023-03-14T10:28:39;6.90;99.90
53264;DHT22;39153;52.680;6.172;2023-03-14T10:31:05;6.90;99.90
53264;DHT22;39153;52.680;6.172;2023-03-14T10:33:35;6.90;99.90
53264;DHT22;39153;52.680;6.172;2023-03-14T10:38:41;6.90;99.90
53264;DHT22;39153;52.680;6.172;2023-03-14T10:41:22;6.90;99.90
53264;DHT22;39153;52.680;6.172;2023-03-14T10:43:58;7.00;99.90
53264;DHT22;39153;52.680;6.172;2023-03-14T10:46:26;7.00;99.90
53264;DHT22;39153;52.680;6.172;2023-03-14T10:48:53;7.00;99.90
53264;DHT22;39153;52.680;6.172;2023-03-14T10:51:24;7.10;99.90
53264;DHT22;39153;52.680;6.172;2023-03-14T10:53:57;7.20;99.90
53264;DHT22;39153;52.680;6.172;2023-03-14T10:56:25;7.30;99.90
53264;DHT22;39153;52.680;6.172;2023-03-14T10:58:53;7.30;99.90
53264;DHT22;39153;52.680;6.172;2023-03-14T11:04:12;7.30;99.90
53264;DHT22;39153;52.680;6.172;2023-03-14T11:06:56;7.40;99.90
53264;DHT22;39153;52.680;6.172;2023-03-14T11:09:35;7.40;99.90
53264;DHT22;39153;52.680;6.172;2023-03-14T11:14:50;7.50;99.90
53264;DHT22;39153;52.680;6.172;2023-03-14T11:17:34;7.50;99.90
53264;DHT22;39153;52.680;6.172;2023-03-14T11:20:05;7.40;99.90
53264;DHT22;39153;52.680;6.172;2023-03-14T11:22:43;7.40;99.90
53264;DHT22;39153;52.680;6.172;2023-03-14T11:25:23;7.50;99.90
53264;DHT22;39153;52.680;6.172;2023-03-14T11:33:37;7.20;99.90
53264;DHT22;39153;52.680;6.172;2023-03-14T11:36:12;7.20;99.90
53264;DHT22;39153;52.680;6.172;2023-03-14T11:38:47;7.40;99.90
53264;DHT22;39153;52.680;6.172;2023-03-14T11:41:23;7.60;99.90
53264;DHT22;39153;52.680;6.172;2023-03-14T11:43:58;7.90;99.90
53264;DHT22;39153;52.680;6.172;2023-03-14T11:46:34;8.20;99.90
53264;DHT22;39153;52.680;6.172;2023-03-14T11:49:22;8.20;99.90
53264;DHT22;39153;52.680;6.172;2023-03-14T11:51:56;8.10;99.90
53264;DHT22;39153;52.680;6.172;2023-03-14T11:54:43;8.30;99.90
53264;DHT22;39153;52.680;6.172;2023-03-14T11:57:17;8.40;99.90
53264;DHT22;39153;52.680;6.172;2023-03-14T12:10:30;9.50;99.90
53264;DHT22;39153;52.680;6.172;2023-03-14T12:13:01;8.50;99.90
53264;DHT22;39153;52.680;6.172;2023-03-14T12:15:27;8.50;99.90
53264;DHT22;39153;52.680;6.172;2023-03-14T12:17:56;8.60;99.90
53264;DHT22;39153;52.680;6.172;2023-03-14T12:20:24;8.70;99.90
53264;DHT22;39153;52.680;6.172;2023-03-14T12:23:10;8.70;99.90
53264;DHT22;39153;52.680;6.172;2023-03-14T12:25:37;8.90;99.90
53264;DHT22;39153;52.680;6.172;2023-03-14T12:28:16;9.00;99.90
53264;DHT22;39153;52.680;6.172;2023-03-14T12:30:42;9.00;99.90
53264;DHT22;39153;52.680;6.172;2023-03-14T12:33:33;9.10;99.90
53264;DHT22;39153;52.680;6.172;2023-03-14T12:36:00;9.10;99.90
53264;DHT22;39153;52.680;6.172;2023-03-14T12:46:58;9.50;99.90
53264;DHT22;39153;52.680;6.172;2023-03-14T12:49:35;9.40;99.90
53264;DHT22;39153;52.680;6.172;2023-03-14T12:52:15;9.10;99.90
53264;DHT22;39153;52.680;6.172;2023-03-14T12:54:55;8.80;99.90
53264;DHT22;39153;52.680;6.172;2023-03-14T13:00:00;8.70;99.90
53264;DHT22;39153;52.680;6.172;2023-03-14T13:02:38;8.80;99.90
53264;DHT22;39153;52.680;6.172;2023-03-14T13:05:18;9.00;99.90
53264;DHT22;39153;52.680;6.172;2023-03-14T13:10:27;8.70;99.90
53264;DHT22;39153;52.680;6.172;2023-03-14T13:13:19;8.30;99.90
53264;DHT22;39153;52.680;6.172;2023-03-14T13:15:44;8.30;99.90
53264;DHT22;39153;52.680;6.172;2023-03-14T13:18:23;8.60;99.90
53264;DHT22;39153;52.680;6.172;2023-03-14T13:23:34;8.80;99.90
53264;DHT22;39153;52.680;6.172;2023-03-14T13:26:00;9.00;99.90
53264;DHT22;39153;52.680;6.172;2023-03-14T13:28:27;9.30;99.90
53264;DHT22;39153;52.680;6.172;2023-03-14T13:30:58;9.60;99.90
53264;DHT22;39153;52.680;6.172;2023-03-14T13:33:24;9.50;99.90
53264;DHT22;39153;52.680;6.172;2023-03-14T13:35:58;9.40;99.90
53264;DHT22;39153;52.680;6.172;2023-03-14T13:38:26;9.50;99.90
53264;DHT22;39153;52.680;6.172;2023-03-14T13:40:55;9.70;99.90
53264;DHT22;39153;52.680;6.172;2023-03-14T13:43:33;9.90;99.90
53264;DHT22;39153;52.680;6.172;2023-03-14T13:48:31;10.20;99.90
53264;DHT22;39153;52.680;6.172;2023-03-14T13:53:29;9.80;99.90
53264;DHT22;39153;52.680;6.172;2023-03-14T13:55:56;9.60;99.90
53264;DHT22;39153;52.680;6.172;2023-03-14T13:58:27;9.40;99.90
53264;DHT22;39153;52.680;6.172;2023-03-14T14:01:01;9.40;99.90
53264;DHT22;39153;52.680;6.172;2023-03-14T14:03:31;9.10;99.90
53264;DHT22;39153;52.680;6.172;2023-03-14T14:05:57;8.90;99.90
53264;DHT22;39153;52.680;6.172;2023-03-14T14:08:25;8.70;99.90
53264;DHT22;39153;52.680;6.172;2023-03-14T14:10:55;8.50;99.90
53264;DHT22;39153;52.680;6.172;2023-03-14T14:13:23;8.40;99.90
53264;DHT22;39153;52.680;6.172;2023-03-14T14:15:51;8.50;99.90
53264;DHT22;39153;52.680;6.172;2023-03-14T14:18:20;8.60;99.90
53264;DHT22;39153;52.680;6.172;2023-03-14T14:20:48;8.70;99.90
53264;DHT22;39153;52.680;6.172;2023-03-14T14:23:25;8.80;99.90
53264;DHT22;39153;52.680;6.172;2023-03-14T14:25:53;8.90;99.90
53264;DHT22;39153;52.680;6.172;2023-03-14T14:28:29;8.70;99.90
53264;DHT22;39153;52.680;6.172;2023-03-14T14:36:31;8.40;99.90
53264;DHT22;39153;52.680;6.172;2023-03-14T14:39:00;8.60;99.90
53264;DHT22;39153;52.680;6.172;2023-03-14T14:41:32;8.70;99.90
53264;DHT22;39153;52.680;6.172;2023-03-14T14:43:59;8.70;99.90
53264;DHT22;39153;52.680;6.172;2023-03-14T14:46:27;8.60;99.90
53264;DHT22;39153;52.680;6.172;2023-03-14T14:49:14;8.50;99.90
53264;DHT22;39153;52.680;6.172;2023-03-14T14:52:13;8.30;99.90
53264;DHT22;39153;52.680;6.172;2023-03-14T14:54:54;8.10;99.90
53264;DHT22;39153;52.680;6.172;2023-03-14T14:57:25;8.20;99.90
53264;DHT22;39153;52.680;6.172;2023-03-14T14:59:56;8.20;99.90
53264;DHT22;39153;52.680;6.172;2023-03-14T15:02:38;8.20;99.90
53264;DHT22;39153;52.680;6.172;2023-03-14T15:05:18;8.10;99.90
53264;DHT22;39153;52.680;6.172;2023-03-14T15:07:44;7.90;99.90
53264;DHT22;39153;52.680;6.172;2023-03-14T15:10:13;7.70;99.90
53264;DHT22;39153;52.680;6.172;2023-03-14T15:12:39;7.60;99.90
53264;DHT22;39153;52.680;6.172;2023-03-14T15:15:06;7.50;99.90
53264;DHT22;39153;52.680;6.172;2023-03-14T15:17:32;7.40;99.90
53264;DHT22;39153;52.680;6.172;2023-03-14T15:19:58;7.30;99.90
53264;DHT22;39153;52.680;6.172;2023-03-14T15:22:24;7.20;99.90
53264;DHT22;39153;52.680;6.172;2023-03-14T15:24:50;7.20;99.90
53264;DHT22;39153;52.680;6.172;2023-03-14T15:27:17;7.20;99.90
53264;DHT22;39153;52.680;6.172;2023-03-14T15:29:43;7.20;99.90
53264;DHT22;39153;52.680;6.172;2023-03-14T15:32:12;7.30;99.90
53264;DHT22;39153;52.680;6.172;2023-03-14T15:34:38;7.40;99.90
53264;DHT22;39153;52.680;6.172;2023-03-14T15:37:04;7.40;99.90
53264;DHT22;39153;52.680;6.172;2023-03-14T15:39:35;7.40;99.90
53264;DHT22;39153;52.680;6.172;2023-03-14T15:42:01;7.70;99.90
53264;DHT22;39153;52.680;6.172;2023-03-14T15:44:27;7.40;99.90
53264;DHT22;39153;52.680;6.172;2023-03-14T15:46:53;7.40;99.90
53264;DHT22;39153;52.680;6.172;2023-03-14T15:49:19;7.20;99.90
53264;DHT22;39153;52.680;6.172;2023-03-14T15:51:44;7.20;99.90
53264;DHT22;39153;52.680;6.172;2023-03-14T15:54:10;7.20;99.90
53264;DHT22;39153;52.680;6.172;2023-03-14T15:56:36;7.20;99.90
53264;DHT22;39153;52.680;6.172;2023-03-14T15:59:02;7.40;99.90
53264;DHT22;39153;52.680;6.172;2023-03-14T16:01:27;7.10;99.90
53264;DHT22;39153;52.680;6.172;2023-03-14T16:03:53;7.00;99.90
53264;DHT22;39153;52.680;6.172;2023-03-14T16:06:19;7.00;99.90
53264;DHT22;39153;52.680;6.172;2023-03-14T16:08:45;6.90;99.90
53264;DHT22;39153;52.680;6.172;2023-03-14T16:11:12;6.90;99.90
53264;DHT22;39153;52.680;6.172;2023-03-14T16:13:38;7.70;99.90
53264;DHT22;39153;52.680;6.172;2023-03-14T16:16:04;6.70;99.90
53264;DHT22;39153;52.680;6.172;2023-03-14T16:18:32;6.70;99.90
53264;DHT22;39153;52.680;6.172;2023-03-14T16:21:04;6.70;99.90
53264;DHT22;39153;52.680;6.172;2023-03-14T16:23:32;6.60;99.90
53264;DHT22;39153;52.680;6.172;2023-03-14T16:25:58;6.30;99.90
53264;DHT22;39153;52.680;6.172;2023-03-14T16:28:25;6.20;99.90
53264;DHT22;39153;52.680;6.172;2023-03-14T16:30:51;6.40;99.90
53264;DHT22;39153;52.680;6.172;2023-03-14T16:33:17;6.20;99.90
53264;DHT22;39153;52.680;6.172;2023-03-14T16:36:13;6.00;99.90
53264;DHT22;39153;52.680;6.172;2023-03-14T16:38:43;6.10;99.90
53264;DHT22;39153;52.680;6.172;2023-03-14T16:41:17;6.10;99.90
53264;DHT22;39153;52.680;6.172;2023-03-14T16:43:43;6.20;99.90
53264;DHT22;39153;52.680;6.172;2023-03-14T16:46:16;6.10;99.90
53264;DHT22;39153;52.680;6.172;2023-03-14T16:48:43;6.10;99.90
53264;DHT22;39153;52.680;6.172;2023-03-14T16:51:09;6.20;99.90
53264;DHT22;39153;52.680;6.172;2023-03-14T16:53:35;6.30;99.90
53264;DHT22;39153;52.680;6.172;2023-03-14T16:56:01;6.30;99.90
53264;DHT22;39153;52.680;6.172;2023-03-14T16:58:27;6.30;99.90
53264;DHT22;39153;52.680;6.172;2023-03-14T17:00:55;6.30;99.90
53264;DHT22;39153;52.680;6.172;2023-03-14T17:03:22;6.20;99.90